Portada
METAR-TAF:

METAR-TAF

Aeropuertos :

Aeropuerto Civil de Amán

Amán, Jordania

latitud: 31-59N, longitud: 035-59E, altitud: 767 m

Observación

El informe se hizo hace 58 minutos, a las 08:00 UTC
Viento 5 kt del oeste
Temperatura 27°C
Humedad 51%
Presión 1009 hPa
Visibilidad: 6000 m
Nubes dispersas a una altura de 2500 ft

METAR: OJAM 240800Z 27005KT 6000 SCT025 27/16 Q1009 NOSIG

Hora: 11:58 (08:58 UTC)

Pronóstico

El informe se hizo hace 4 horas y 7 minutos, a las 04:51 UTC
Pronóstico válido del 24 a las 06 UTC al 25 a las 12 UTC
Viento 5 kt del oeste
Visibilidad: 7000 m
Escasas nubes a una altura de 3000 ft
Temporalmente
del 24 a las 09 UTC al 24 a las 17 UTC
Viento 12 kt del oeste
Visibilidad: 5000 m
calima

TAF: OJAM 240451Z 2406/2512 26005KT 7000 FEW030 TEMPO 2409/2417 28012KT 5000 HZ NSC

Observaciones y pronósticos meteorológicos de más de 4000 aeropuertos (mensajes METAR y TAF).

Los puntos amarillos y rojos representan las estaciones disponibles.

Ponga el ratón en el punto deseado para ver el nombre de la estación.

Haga clic para ver las observaciones y los pronósticos meteorológicos.

Para cambiar el mapa : haga clic en los botones verdes con una cruz de color negro para hacer un zoom, en el botón verde con un guión para alejar o en las flechas verdes para mapas adyacentes.


METAR-TAF: